sensor_id;sensor_type;location;lat;lon;timestamp;P1;durP1;ratioP1;P2;durP2;ratioP2
47153;SDS011;32907;41.412;2.164;2023-04-03T00:02:00;2.70;;;0.93;;
47153;SDS011;32907;41.412;2.164;2023-04-03T00:04:28;2.75;;;0.68;;
47153;SDS011;32907;41.412;2.164;2023-04-03T00:06:56;1.83;;;0.80;;
47153;SDS011;32907;41.412;2.164;2023-04-03T00:09:24;3.28;;;0.82;;
47153;SDS011;32907;41.412;2.164;2023-04-03T00:11:53;2.42;;;0.90;;
47153;SDS011;32907;41.412;2.164;2023-04-03T00:14:21;2.58;;;0.70;;
47153;SDS011;32907;41.412;2.164;2023-04-03T00:16:49;2.00;;;0.70;;
47153;SDS011;32907;41.412;2.164;2023-04-03T00:19:17;2.00;;;0.73;;
47153;SDS011;32907;41.412;2.164;2023-04-03T00:21:45;3.17;;;0.90;;
47153;SDS011;32907;41.412;2.164;2023-04-03T00:24:14;2.78;;;0.90;;
47153;SDS011;32907;41.412;2.164;2023-04-03T00:26:42;4.57;;;0.98;;
47153;SDS011;32907;41.412;2.164;2023-04-03T00:29:10;2.42;;;0.75;;
47153;SDS011;32907;41.412;2.164;2023-04-03T00:31:38;3.05;;;0.70;;
47153;SDS011;32907;41.412;2.164;2023-04-03T00:34:06;2.95;;;1.13;;
47153;SDS011;32907;41.412;2.164;2023-04-03T00:36:34;2.60;;;0.88;;
47153;SDS011;32907;41.412;2.164;2023-04-03T00:39:02;2.67;;;0.88;;
47153;SDS011;32907;41.412;2.164;2023-04-03T00:41:30;2.25;;;0.85;;
47153;SDS011;32907;41.412;2.164;2023-04-03T00:43:59;2.92;;;1.00;;
47153;SDS011;32907;41.412;2.164;2023-04-03T00:46:27;4.20;;;1.00;;
47153;SDS011;32907;41.412;2.164;2023-04-03T00:48:55;3.17;;;1.25;;
47153;SDS011;32907;41.412;2.164;2023-04-03T00:51:24;2.08;;;0.73;;
47153;SDS011;32907;41.412;2.164;2023-04-03T00:53:55;1.92;;;0.70;;
47153;SDS011;32907;41.412;2.164;2023-04-03T00:56:27;2.00;;;0.70;;
47153;SDS011;32907;41.412;2.164;2023-04-03T00:58:59;2.60;;;0.82;;
47153;SDS011;32907;41.412;2.164;2023-04-03T01:01:32;1.75;;;0.70;;
47153;SDS011;32907;41.412;2.164;2023-04-03T01:04:00;2.70;;;0.82;;
47153;SDS011;32907;41.412;2.164;2023-04-03T01:06:31;2.55;;;0.80;;
47153;SDS011;32907;41.412;2.164;2023-04-03T01:09:06;2.72;;;1.00;;
47153;SDS011;32907;41.412;2.164;2023-04-03T01:11:35;3.00;;;0.90;;
47153;SDS011;32907;41.412;2.164;2023-04-03T01:14:04;3.22;;;0.90;;
47153;SDS011;32907;41.412;2.164;2023-04-03T01:16:33;2.80;;;0.90;;
47153;SDS011;32907;41.412;2.164;2023-04-03T01:19:02;3.67;;;0.93;;
47153;SDS011;32907;41.412;2.164;2023-04-03T01:24:54;1.88;;;0.77;;
47153;SDS011;32907;41.412;2.164;2023-04-03T01:27:22;2.08;;;0.75;;
47153;SDS011;32907;41.412;2.164;2023-04-03T01:29:49;3.25;;;0.70;;
47153;SDS011;32907;41.412;2.164;2023-04-03T01:32:19;1.92;;;0.80;;
47153;SDS011;32907;41.412;2.164;2023-04-03T01:34:48;1.27;;;0.50;;
47153;SDS011;32907;41.412;2.164;2023-04-03T01:37:17;2.15;;;0.63;;
47153;SDS011;32907;41.412;2.164;2023-04-03T01:39:45;2.58;;;0.90;;
47153;SDS011;32907;41.412;2.164;2023-04-03T01:42:14;3.97;;;0.98;;
47153;SDS011;32907;41.412;2.164;2023-04-03T01:44:44;1.70;;;0.60;;
47153;SDS011;32907;41.412;2.164;2023-04-03T01:47:12;2.55;;;1.00;;
47153;SDS011;32907;41.412;2.164;2023-04-03T01:49:41;2.58;;;0.77;;
47153;SDS011;32907;41.412;2.164;2023-04-03T01:52:09;1.75;;;0.68;;
47153;SDS011;32907;41.412;2.164;2023-04-03T01:54:37;1.45;;;0.60;;
47153;SDS011;32907;41.412;2.164;2023-04-03T01:57:05;1.67;;;0.63;;
47153;SDS011;32907;41.412;2.164;2023-04-03T01:59:33;2.72;;;0.57;;
47153;SDS011;32907;41.412;2.164;2023-04-03T02:02:01;2.17;;;0.60;;
47153;SDS011;32907;41.412;2.164;2023-04-03T02:04:29;2.22;;;0.47;;
47153;SDS011;32907;41.412;2.164;2023-04-03T02:06:57;0.93;;;0.30;;
47153;SDS011;32907;41.412;2.164;2023-04-03T02:09:26;2.08;;;0.50;;
47153;SDS011;32907;41.412;2.164;2023-04-03T02:11:54;0.93;;;0.40;;
47153;SDS011;32907;41.412;2.164;2023-04-03T02:14:21;2.47;;;0.60;;
47153;SDS011;32907;41.412;2.164;2023-04-03T02:16:50;1.45;;;0.60;;
47153;SDS011;32907;41.412;2.164;2023-04-03T02:19:22;1.05;;;0.40;;
47153;SDS011;32907;41.412;2.164;2023-04-03T02:21:50;1.55;;;0.57;;
47153;SDS011;32907;41.412;2.164;2023-04-03T02:24:18;2.15;;;0.57;;
47153;SDS011;32907;41.412;2.164;2023-04-03T02:26:46;1.95;;;0.43;;
47153;SDS011;32907;41.412;2.164;2023-04-03T02:29:14;2.15;;;0.63;;
47153;SDS011;32907;41.412;2.164;2023-04-03T02:31:42;2.10;;;0.60;;
47153;SDS011;32907;41.412;2.164;2023-04-03T02:34:09;2.03;;;0.77;;
47153;SDS011;32907;41.412;2.164;2023-04-03T02:36:38;3.30;;;0.60;;
47153;SDS011;32907;41.412;2.164;2023-04-03T02:39:08;1.95;;;0.60;;
47153;SDS011;32907;41.412;2.164;2023-04-03T02:41:36;2.05;;;0.70;;
47153;SDS011;32907;41.412;2.164;2023-04-03T02:44:10;1.92;;;0.60;;
47153;SDS011;32907;41.412;2.164;2023-04-03T02:46:38;1.90;;;0.75;;
47153;SDS011;32907;41.412;2.164;2023-04-03T02:49:06;2.42;;;0.60;;
47153;SDS011;32907;41.412;2.164;2023-04-03T02:51:34;2.55;;;0.60;;
47153;SDS011;32907;41.412;2.164;2023-04-03T02:54:02;1.52;;;0.75;;
47153;SDS011;32907;41.412;2.164;2023-04-03T02:56:33;2.20;;;0.70;;
47153;SDS011;32907;41.412;2.164;2023-04-03T02:59:01;1.75;;;0.80;;
47153;SDS011;32907;41.412;2.164;2023-04-03T03:01:29;2.67;;;0.73;;
47153;SDS011;32907;41.412;2.164;2023-04-03T03:03:59;1.55;;;0.60;;
47153;SDS011;32907;41.412;2.164;2023-04-03T03:06:28;1.67;;;0.55;;
47153;SDS011;32907;41.412;2.164;2023-04-03T03:08:56;2.47;;;1.00;;
47153;SDS011;32907;41.412;2.164;2023-04-03T03:11:24;1.55;;;0.73;;
47153;SDS011;32907;41.412;2.164;2023-04-03T03:13:52;2.03;;;0.77;;
47153;SDS011;32907;41.412;2.164;2023-04-03T03:16:20;5.20;;;0.85;;
47153;SDS011;32907;41.412;2.164;2023-04-03T03:18:49;2.60;;;0.70;;
47153;SDS011;32907;41.412;2.164;2023-04-03T03:21:17;1.92;;;0.50;;
47153;SDS011;32907;41.412;2.164;2023-04-03T03:23:45;1.15;;;0.50;;
47153;SDS011;32907;41.412;2.164;2023-04-03T03:26:13;1.70;;;0.68;;
47153;SDS011;32907;41.412;2.164;2023-04-03T03:28:40;2.83;;;0.60;;
47153;SDS011;32907;41.412;2.164;2023-04-03T03:31:11;1.45;;;0.50;;
47153;SDS011;32907;41.412;2.164;2023-04-03T03:33:40;1.85;;;0.65;;
47153;SDS011;32907;41.412;2.164;2023-04-03T03:36:08;1.25;;;0.60;;
47153;SDS011;32907;41.412;2.164;2023-04-03T03:38:36;0.93;;;0.30;;
47153;SDS011;32907;41.412;2.164;2023-04-03T03:41:05;1.67;;;0.50;;
47153;SDS011;32907;41.412;2.164;2023-04-03T03:43:34;1.75;;;0.57;;
47153;SDS011;32907;41.412;2.164;2023-04-03T03:46:04;3.30;;;0.70;;
47153;SDS011;32907;41.412;2.164;2023-04-03T03:48:33;1.05;;;0.47;;
47153;SDS011;32907;41.412;2.164;2023-04-03T03:51:01;2.00;;;0.73;;
47153;SDS011;32907;41.412;2.164;2023-04-03T03:53:33;3.72;;;0.70;;
47153;SDS011;32907;41.412;2.164;2023-04-03T03:56:05;2.60;;;0.68;;
47153;SDS011;32907;41.412;2.164;2023-04-03T03:58:35;1.27;;;0.55;;
47153;SDS011;32907;41.412;2.164;2023-04-03T04:01:04;1.92;;;0.70;;
47153;SDS011;32907;41.412;2.164;2023-04-03T04:03:39;1.27;;;0.60;;
47153;SDS011;32907;41.412;2.164;2023-04-03T04:06:12;2.22;;;0.80;;
47153;SDS011;32907;41.412;2.164;2023-04-03T04:08:40;1.52;;;0.40;;
47153;SDS011;32907;41.412;2.164;2023-04-03T04:11:10;1.58;;;0.50;;
47153;SDS011;32907;41.412;2.164;2023-04-03T04:13:39;1.55;;;0.50;;
47153;SDS011;32907;41.412;2.164;2023-04-03T04:16:10;2.08;;;0.80;;
47153;SDS011;32907;41.412;2.164;2023-04-03T04:18:38;1.38;;;0.43;;
47153;SDS011;32907;41.412;2.164;2023-04-03T04:21:06;1.65;;;0.60;;
47153;SDS011;32907;41.412;2.164;2023-04-03T04:23:34;1.88;;;0.80;;
47153;SDS011;32907;41.412;2.164;2023-04-03T04:26:03;1.92;;;0.88;;
47153;SDS011;32907;41.412;2.164;2023-04-03T04:28:34;2.92;;;1.00;;
47153;SDS011;32907;41.412;2.164;2023-04-03T04:31:04;2.63;;;1.33;;
47153;SDS011;32907;41.412;2.164;2023-04-03T04:33:33;2.70;;;1.50;;
47153;SDS011;32907;41.412;2.164;2023-04-03T04:36:03;2.08;;;1.10;;
47153;SDS011;32907;41.412;2.164;2023-04-03T04:38:32;2.60;;;1.30;;
47153;SDS011;32907;41.412;2.164;2023-04-03T04:41:00;2.08;;;1.13;;
47153;SDS011;32907;41.412;2.164;2023-04-03T04:43:28;5.57;;;1.85;;
47153;SDS011;32907;41.412;2.164;2023-04-03T04:46:03;2.25;;;1.10;;
47153;SDS011;32907;41.412;2.164;2023-04-03T04:48:41;2.20;;;0.90;;
47153;SDS011;32907;41.412;2.164;2023-04-03T04:51:12;2.22;;;1.00;;
47153;SDS011;32907;41.412;2.164;2023-04-03T04:53:41;2.03;;;0.80;;
47153;SDS011;32907;41.412;2.164;2023-04-03T04:56:13;1.63;;;0.98;;
47153;SDS011;32907;41.412;2.164;2023-04-03T04:58:42;3.20;;;1.20;;
47153;SDS011;32907;41.412;2.164;2023-04-03T05:01:10;2.65;;;1.27;;
47153;SDS011;32907;41.412;2.164;2023-04-03T05:03:47;4.25;;;1.63;;
47153;SDS011;32907;41.412;2.164;2023-04-03T05:06:16;2.65;;;1.05;;
47153;SDS011;32907;41.412;2.164;2023-04-03T05:08:46;3.10;;;1.60;;
47153;SDS011;32907;41.412;2.164;2023-04-03T05:11:14;2.22;;;1.00;;
47153;SDS011;32907;41.412;2.164;2023-04-03T05:13:43;3.47;;;1.67;;
47153;SDS011;32907;41.412;2.164;2023-04-03T05:16:11;3.95;;;2.00;;
47153;SDS011;32907;41.412;2.164;2023-04-03T05:18:39;5.38;;;2.33;;
47153;SDS011;32907;41.412;2.164;2023-04-03T05:21:10;2.70;;;1.75;;
47153;SDS011;32907;41.412;2.164;2023-04-03T05:23:38;3.75;;;1.83;;
47153;SDS011;32907;41.412;2.164;2023-04-03T05:26:06;4.53;;;1.73;;
47153;SDS011;32907;41.412;2.164;2023-04-03T05:28:34;2.63;;;1.35;;
47153;SDS011;32907;41.412;2.164;2023-04-03T05:31:02;2.38;;;1.15;;
47153;SDS011;32907;41.412;2.164;2023-04-03T05:33:34;21.30;;;4.55;;
47153;SDS011;32907;41.412;2.164;2023-04-03T05:36:06;22.60;;;5.43;;
47153;SDS011;32907;41.412;2.164;2023-04-03T05:38:40;9.55;;;3.55;;
47153;SDS011;32907;41.412;2.164;2023-04-03T05:41:09;7.93;;;3.00;;
47153;SDS011;32907;41.412;2.164;2023-04-03T05:43:37;9.15;;;2.85;;
47153;SDS011;32907;41.412;2.164;2023-04-03T05:46:11;7.97;;;2.90;;
47153;SDS011;32907;41.412;2.164;2023-04-03T05:48:43;7.80;;;2.15;;
47153;SDS011;32907;41.412;2.164;2023-04-03T05:51:17;3.72;;;1.50;;
47153;SDS011;32907;41.412;2.164;2023-04-03T05:54:11;3.83;;;1.40;;
47153;SDS011;32907;41.412;2.164;2023-04-03T05:56:45;8.18;;;2.10;;
47153;SDS011;32907;41.412;2.164;2023-04-03T05:59:13;5.65;;;1.75;;
47153;SDS011;32907;41.412;2.164;2023-04-03T06:01:43;7.18;;;2.40;;
47153;SDS011;32907;41.412;2.164;2023-04-03T06:04:11;6.65;;;1.50;;
47153;SDS011;32907;41.412;2.164;2023-04-03T06:09:13;10.57;;;1.67;;
47153;SDS011;32907;41.412;2.164;2023-04-03T06:11:43;10.80;;;2.38;;
47153;SDS011;32907;41.412;2.164;2023-04-03T06:14:12;8.43;;;2.55;;
47153;SDS011;32907;41.412;2.164;2023-04-03T06:16:41;5.68;;;2.17;;
47153;SDS011;32907;41.412;2.164;2023-04-03T06:19:09;7.30;;;2.25;;
47153;SDS011;32907;41.412;2.164;2023-04-03T06:21:42;6.30;;;2.28;;
47153;SDS011;32907;41.412;2.164;2023-04-03T06:24:12;9.98;;;3.05;;
47153;SDS011;32907;41.412;2.164;2023-04-03T06:26:42;8.00;;;2.15;;
47153;SDS011;32907;41.412;2.164;2023-04-03T06:29:10;14.95;;;3.00;;
47153;SDS011;32907;41.412;2.164;2023-04-03T06:31:38;16.52;;;3.13;;
47153;SDS011;32907;41.412;2.164;2023-04-03T06:34:07;12.32;;;3.40;;
47153;SDS011;32907;41.412;2.164;2023-04-03T06:36:36;13.25;;;3.15;;
47153;SDS011;32907;41.412;2.164;2023-04-03T06:39:05;11.65;;;2.15;;
47153;SDS011;32907;41.412;2.164;2023-04-03T06:41:34;13.55;;;2.40;;
47153;SDS011;32907;41.412;2.164;2023-04-03T06:44:03;8.25;;;2.35;;
47153;SDS011;32907;41.412;2.164;2023-04-03T06:46:31;8.25;;;1.88;;
47153;SDS011;32907;41.412;2.164;2023-04-03T06:48:59;8.88;;;2.15;;
47153;SDS011;32907;41.412;2.164;2023-04-03T06:51:28;10.02;;;1.90;;
47153;SDS011;32907;41.412;2.164;2023-04-03T06:53:57;5.53;;;1.90;;
47153;SDS011;32907;41.412;2.164;2023-04-03T06:56:26;9.27;;;2.20;;
47153;SDS011;32907;41.412;2.164;2023-04-03T06:58:55;8.30;;;1.80;;
47153;SDS011;32907;41.412;2.164;2023-04-03T07:01:26;7.05;;;1.70;;
47153;SDS011;32907;41.412;2.164;2023-04-03T07:03:55;3.50;;;1.30;;
47153;SDS011;32907;41.412;2.164;2023-04-03T07:06:24;5.65;;;1.42;;
47153;SDS011;32907;41.412;2.164;2023-04-03T07:08:54;5.45;;;1.45;;
47153;SDS011;32907;41.412;2.164;2023-04-03T07:11:23;3.95;;;1.13;;
47153;SDS011;32907;41.412;2.164;2023-04-03T07:13:51;4.90;;;1.20;;
47153;SDS011;32907;41.412;2.164;2023-04-03T07:16:19;5.28;;;1.17;;
47153;SDS011;32907;41.412;2.164;2023-04-03T07:18:48;7.75;;;1.58;;
47153;SDS011;32907;41.412;2.164;2023-04-03T07:21:16;6.22;;;1.85;;
47153;SDS011;32907;41.412;2.164;2023-04-03T07:23:44;4.55;;;1.27;;
47153;SDS011;32907;41.412;2.164;2023-04-03T07:26:12;9.18;;;1.45;;
47153;SDS011;32907;41.412;2.164;2023-04-03T07:28:41;6.78;;;1.25;;
47153;SDS011;32907;41.412;2.164;2023-04-03T07:31:12;6.38;;;1.13;;
47153;SDS011;32907;41.412;2.164;2023-04-03T07:33:44;6.60;;;1.50;;
47153;SDS011;32907;41.412;2.164;2023-04-03T07:36:15;6.40;;;1.45;;
47153;SDS011;32907;41.412;2.164;2023-04-03T07:38:45;4.43;;;1.00;;
47153;SDS011;32907;41.412;2.164;2023-04-03T07:41:14;5.63;;;1.00;;
47153;SDS011;32907;41.412;2.164;2023-04-03T07:43:45;6.55;;;1.15;;
47153;SDS011;32907;41.412;2.164;2023-04-03T07:46:14;6.18;;;1.20;;
47153;SDS011;32907;41.412;2.164;2023-04-03T07:48:46;5.45;;;1.17;;
47153;SDS011;32907;41.412;2.164;2023-04-03T07:51:14;3.45;;;1.13;;
47153;SDS011;32907;41.412;2.164;2023-04-03T07:53:42;5.72;;;1.58;;
47153;SDS011;32907;41.412;2.164;2023-04-03T07:56:10;6.13;;;1.33;;
47153;SDS011;32907;41.412;2.164;2023-04-03T07:58:39;5.93;;;1.23;;
47153;SDS011;32907;41.412;2.164;2023-04-03T08:01:07;6.68;;;1.33;;
47153;SDS011;32907;41.412;2.164;2023-04-03T08:03:35;7.38;;;1.70;;
47153;SDS011;32907;41.412;2.164;2023-04-03T08:06:06;6.45;;;1.75;;
47153;SDS011;32907;41.412;2.164;2023-04-03T08:08:41;4.85;;;1.20;;
47153;SDS011;32907;41.412;2.164;2023-04-03T08:11:11;7.43;;;1.13;;
47153;SDS011;32907;41.412;2.164;2023-04-03T08:13:39;4.00;;;1.25;;
47153;SDS011;32907;41.412;2.164;2023-04-03T08:16:10;8.77;;;1.50;;
47153;SDS011;32907;41.412;2.164;2023-04-03T08:18:40;6.70;;;2.10;;
47153;SDS011;32907;41.412;2.164;2023-04-03T08:21:08;6.95;;;1.98;;
47153;SDS011;32907;41.412;2.164;2023-04-03T08:23:38;5.90;;;1.80;;
47153;SDS011;32907;41.412;2.164;2023-04-03T08:26:09;7.60;;;2.08;;
47153;SDS011;32907;41.412;2.164;2023-04-03T08:28:41;6.47;;;1.80;;
47153;SDS011;32907;41.412;2.164;2023-04-03T08:31:10;5.72;;;1.55;;
47153;SDS011;32907;41.412;2.164;2023-04-03T08:33:41;7.82;;;2.60;;
47153;SDS011;32907;41.412;2.164;2023-04-03T08:36:31;5.68;;;1.70;;
47153;SDS011;32907;41.412;2.164;2023-04-03T08:38:57;10.95;;;2.97;;
47153;SDS011;32907;41.412;2.164;2023-04-03T08:44:46;4.18;;;1.20;;
47153;SDS011;32907;41.412;2.164;2023-04-03T08:49:36;6.40;;;1.10;;
47153;SDS011;32907;41.412;2.164;2023-04-03T08:52:09;6.82;;;1.55;;
47153;SDS011;32907;41.412;2.164;2023-04-03T08:55:01;3.47;;;1.17;;
47153;SDS011;32907;41.412;2.164;2023-04-03T08:57:33;6.80;;;1.52;;
47153;SDS011;32907;41.412;2.164;2023-04-03T09:00:05;4.30;;;1.65;;
47153;SDS011;32907;41.412;2.164;2023-04-03T09:02:52;8.65;;;2.03;;
47153;SDS011;32907;41.412;2.164;2023-04-03T09:05:40;6.90;;;1.40;;
47153;SDS011;32907;41.412;2.164;2023-04-03T09:10:52;5.40;;;1.98;;
47153;SDS011;32907;41.412;2.164;2023-04-03T09:13:32;9.07;;;1.95;;
47153;SDS011;32907;41.412;2.164;2023-04-03T09:16:06;6.20;;;1.80;;
47153;SDS011;32907;41.412;2.164;2023-04-03T09:18:51;7.55;;;1.52;;
47153;SDS011;32907;41.412;2.164;2023-04-03T09:21:34;6.15;;;2.13;;
47153;SDS011;32907;41.412;2.164;2023-04-03T09:24:06;5.97;;;2.00;;
47153;SDS011;32907;41.412;2.164;2023-04-03T09:29:20;2.78;;;1.20;;
47153;SDS011;32907;41.412;2.164;2023-04-03T09:31:58;5.30;;;1.58;;
47153;SDS011;32907;41.412;2.164;2023-04-03T09:34:32;4.90;;;1.90;;
47153;SDS011;32907;41.412;2.164;2023-04-03T09:37:04;6.57;;;2.35;;
47153;SDS011;32907;41.412;2.164;2023-04-03T09:39:52;6.78;;;2.15;;
47153;SDS011;32907;41.412;2.164;2023-04-03T09:42:23;6.78;;;2.20;;
47153;SDS011;32907;41.412;2.164;2023-04-03T09:44:54;8.13;;;1.67;;
47153;SDS011;32907;41.412;2.164;2023-04-03T09:47:27;7.82;;;2.28;;
47153;SDS011;32907;41.412;2.164;2023-04-03T09:52:49;4.80;;;2.13;;
47153;SDS011;32907;41.412;2.164;2023-04-03T09:57:49;7.70;;;1.50;;
47153;SDS011;32907;41.412;2.164;2023-04-03T10:00:41;4.22;;;1.85;;
47153;SDS011;32907;41.412;2.164;2023-04-03T10:03:23;5.75;;;1.65;;
47153;SDS011;32907;41.412;2.164;2023-04-03T10:05:55;7.28;;;3.08;;
47153;SDS011;32907;41.412;2.164;2023-04-03T10:08:27;3.47;;;1.73;;
47153;SDS011;32907;41.412;2.164;2023-04-03T10:13:53;4.50;;;1.73;;
47153;SDS011;32907;41.412;2.164;2023-04-03T10:16:25;3.72;;;1.33;;
47153;SDS011;32907;41.412;2.164;2023-04-03T10:19:00;3.58;;;1.30;;
47153;SDS011;32907;41.412;2.164;2023-04-03T10:26:47;14.75;;;2.95;;
47153;SDS011;32907;41.412;2.164;2023-04-03T10:32:52;4.32;;;1.15;;
47153;SDS011;32907;41.412;2.164;2023-04-03T10:46:23;3.85;;;1.15;;
47153;SDS011;32907;41.412;2.164;2023-04-03T10:49:25;4.35;;;0.93;;
47153;SDS011;32907;41.412;2.164;2023-04-03T10:57:29;6.72;;;1.65;;
47153;SDS011;32907;41.412;2.164;2023-04-03T10:59:59;10.45;;;5.20;;
47153;SDS011;32907;41.412;2.164;2023-04-03T11:03:07;4.05;;;1.75;;
47153;SDS011;32907;41.412;2.164;2023-04-03T11:05:34;6.97;;;1.40;;
47153;SDS011;32907;41.412;2.164;2023-04-03T11:08:55;4.15;;;1.00;;
47153;SDS011;32907;41.412;2.164;2023-04-03T11:11:09;3.37;;;1.00;;
47153;SDS011;32907;41.412;2.164;2023-04-03T11:13:45;5.30;;;1.27;;
47153;SDS011;32907;41.412;2.164;2023-04-03T11:16:45;4.47;;;1.35;;
47153;SDS011;32907;41.412;2.164;2023-04-03T11:19:21;4.88;;;1.67;;
47153;SDS011;32907;41.412;2.164;2023-04-03T11:25:03;4.10;;;1.10;;
47153;SDS011;32907;41.412;2.164;2023-04-03T11:27:56;2.42;;;1.33;;
47153;SDS011;32907;41.412;2.164;2023-04-03T11:30:42;4.40;;;1.40;;
47153;SDS011;32907;41.412;2.164;2023-04-03T11:35:54;5.35;;;2.35;;
47153;SDS011;32907;41.412;2.164;2023-04-03T11:38:30;3.72;;;1.50;;
47153;SDS011;32907;41.412;2.164;2023-04-03T11:41:04;4.93;;;1.75;;
47153;SDS011;32907;41.412;2.164;2023-04-03T11:43:37;3.63;;;1.63;;
47153;SDS011;32907;41.412;2.164;2023-04-03T11:47:11;6.20;;;2.35;;
47153;SDS011;32907;41.412;2.164;2023-04-03T12:24:32;4.60;;;1.63;;
47153;SDS011;32907;41.412;2.164;2023-04-03T12:27:13;5.93;;;1.77;;
47153;SDS011;32907;41.412;2.164;2023-04-03T12:29:47;2.35;;;1.10;;
47153;SDS011;32907;41.412;2.164;2023-04-03T12:41:15;3.20;;;1.30;;
47153;SDS011;32907;41.412;2.164;2023-04-03T12:44:35;3.33;;;1.20;;
47153;SDS011;32907;41.412;2.164;2023-04-03T12:47:01;4.10;;;1.40;;
47153;SDS011;32907;41.412;2.164;2023-04-03T12:52:17;6.32;;;2.53;;
47153;SDS011;32907;41.412;2.164;2023-04-03T12:54:54;8.45;;;3.17;;
47153;SDS011;32907;41.412;2.164;2023-04-03T12:57:24;6.38;;;2.53;;
47153;SDS011;32907;41.412;2.164;2023-04-03T12:59:54;7.03;;;2.83;;
47153;SDS011;32907;41.412;2.164;2023-04-03T13:02:27;7.50;;;2.78;;
47153;SDS011;32907;41.412;2.164;2023-04-03T13:04:58;5.30;;;2.13;;
47153;SDS011;32907;41.412;2.164;2023-04-03T13:07:34;4.50;;;2.30;;
47153;SDS011;32907;41.412;2.164;2023-04-03T13:12:48;5.25;;;2.67;;
47153;SDS011;32907;41.412;2.164;2023-04-03T13:15:30;7.47;;;2.08;;
47153;SDS011;32907;41.412;2.164;2023-04-03T13:18:27;6.30;;;1.98;;
47153;SDS011;32907;41.412;2.164;2023-04-03T13:21:00;5.03;;;1.85;;
47153;SDS011;32907;41.412;2.164;2023-04-03T13:23:32;9.88;;;3.97;;
47153;SDS011;32907;41.412;2.164;2023-04-03T13:26:04;11.20;;;5.32;;
47153;SDS011;32907;41.412;2.164;2023-04-03T13:28:34;15.65;;;9.55;;
47153;SDS011;32907;41.412;2.164;2023-04-03T13:31:04;17.27;;;9.23;;
47153;SDS011;32907;41.412;2.164;2023-04-03T13:34:07;15.52;;;8.27;;
47153;SDS011;32907;41.412;2.164;2023-04-03T13:36:40;16.95;;;8.55;;
47153;SDS011;32907;41.412;2.164;2023-04-03T13:39:23;13.85;;;7.80;;
47153;SDS011;32907;41.412;2.164;2023-04-03T13:41:55;14.45;;;7.38;;
47153;SDS011;32907;41.412;2.164;2023-04-03T13:44:27;13.82;;;7.50;;
47153;SDS011;32907;41.412;2.164;2023-04-03T13:47:14;11.93;;;7.25;;
47153;SDS011;32907;41.412;2.164;2023-04-03T13:52:38;11.45;;;5.97;;
47153;SDS011;32907;41.412;2.164;2023-04-03T14:05:49;8.90;;;3.10;;
47153;SDS011;32907;41.412;2.164;2023-04-03T14:08:18;5.40;;;3.13;;
47153;SDS011;32907;41.412;2.164;2023-04-03T14:10:58;8.75;;;2.70;;
47153;SDS011;32907;41.412;2.164;2023-04-03T14:13:29;6.38;;;3.30;;
47153;SDS011;32907;41.412;2.164;2023-04-03T14:15:58;5.93;;;3.58;;
47153;SDS011;32907;41.412;2.164;2023-04-03T14:18:42;7.43;;;4.47;;
47153;SDS011;32907;41.412;2.164;2023-04-03T14:21:12;7.82;;;4.40;;
47153;SDS011;32907;41.412;2.164;2023-04-03T14:23:42;9.43;;;4.75;;
47153;SDS011;32907;41.412;2.164;2023-04-03T14:26:14;9.80;;;5.07;;
47153;SDS011;32907;41.412;2.164;2023-04-03T14:28:48;10.07;;;4.47;;
47153;SDS011;32907;41.412;2.164;2023-04-03T14:31:19;5.35;;;3.20;;
47153;SDS011;32907;41.412;2.164;2023-04-03T14:33:49;5.68;;;2.70;;
47153;SDS011;32907;41.412;2.164;2023-04-03T14:36:20;6.43;;;3.17;;
47153;SDS011;32907;41.412;2.164;2023-04-03T14:38:50;5.90;;;2.30;;
47153;SDS011;32907;41.412;2.164;2023-04-03T14:41:20;5.72;;;2.38;;
47153;SDS011;32907;41.412;2.164;2023-04-03T14:43:55;4.78;;;1.98;;
47153;SDS011;32907;41.412;2.164;2023-04-03T14:46:34;5.07;;;2.30;;
47153;SDS011;32907;41.412;2.164;2023-04-03T14:49:26;8.80;;;2.35;;
47153;SDS011;32907;41.412;2.164;2023-04-03T14:51:56;5.80;;;2.67;;
47153;SDS011;32907;41.412;2.164;2023-04-03T14:54:25;8.32;;;3.33;;
47153;SDS011;32907;41.412;2.164;2023-04-03T14:56:55;7.78;;;3.88;;
47153;SDS011;32907;41.412;2.164;2023-04-03T14:59:27;4.97;;;2.80;;
47153;SDS011;32907;41.412;2.164;2023-04-03T15:01:56;5.47;;;3.22;;
47153;SDS011;32907;41.412;2.164;2023-04-03T15:04:24;7.50;;;3.25;;
47153;SDS011;32907;41.412;2.164;2023-04-03T15:06:53;5.60;;;2.35;;
47153;SDS011;32907;41.412;2.164;2023-04-03T15:09:22;5.20;;;2.15;;
47153;SDS011;32907;41.412;2.164;2023-04-03T15:11:53;5.63;;;1.80;;
47153;SDS011;32907;41.412;2.164;2023-04-03T15:14:22;3.85;;;1.52;;
47153;SDS011;32907;41.412;2.164;2023-04-03T15:17:10;3.75;;;1.50;;
47153;SDS011;32907;41.412;2.164;2023-04-03T15:19:44;5.80;;;1.98;;
47153;SDS011;32907;41.412;2.164;2023-04-03T15:22:18;4.15;;;1.70;;
47153;SDS011;32907;41.412;2.164;2023-04-03T15:24:58;3.28;;;1.58;;
47153;SDS011;32907;41.412;2.164;2023-04-03T15:27:28;4.57;;;2.17;;
47153;SDS011;32907;41.412;2.164;2023-04-03T15:29:56;4.82;;;2.20;;
47153;SDS011;32907;41.412;2.164;2023-04-03T15:32:24;4.75;;;2.00;;
47153;SDS011;32907;41.412;2.164;2023-04-03T15:34:53;6.68;;;1.80;;
47153;SDS011;32907;41.412;2.164;2023-04-03T15:37:23;6.65;;;2.30;;
47153;SDS011;32907;41.412;2.164;2023-04-03T15:39:51;5.40;;;2.00;;
47153;SDS011;32907;41.412;2.164;2023-04-03T15:42:19;3.47;;;1.60;;
47153;SDS011;32907;41.412;2.164;2023-04-03T15:44:47;4.60;;;1.80;;
47153;SDS011;32907;41.412;2.164;2023-04-03T15:47:15;6.25;;;1.73;;
47153;SDS011;32907;41.412;2.164;2023-04-03T15:49:43;4.53;;;1.60;;
47153;SDS011;32907;41.412;2.164;2023-04-03T15:52:11;6.90;;;1.58;;
47153;SDS011;32907;41.412;2.164;2023-04-03T15:54:39;4.88;;;1.55;;
47153;SDS011;32907;41.412;2.164;2023-04-03T15:57:07;5.72;;;1.58;;
47153;SDS011;32907;41.412;2.164;2023-04-03T15:59:37;5.90;;;1.25;;
47153;SDS011;32907;41.412;2.164;2023-04-03T16:02:05;3.10;;;1.20;;
47153;SDS011;32907;41.412;2.164;2023-04-03T16:04:37;3.47;;;1.10;;
47153;SDS011;32907;41.412;2.164;2023-04-03T16:07:05;5.50;;;1.58;;
47153;SDS011;32907;41.412;2.164;2023-04-03T16:09:41;3.42;;;1.23;;
47153;SDS011;32907;41.412;2.164;2023-04-03T16:12:09;3.65;;;0.88;;
47153;SDS011;32907;41.412;2.164;2023-04-03T16:14:41;3.50;;;1.25;;
47153;SDS011;32907;41.412;2.164;2023-04-03T16:17:09;6.32;;;1.40;;
47153;SDS011;32907;41.412;2.164;2023-04-03T16:19:37;5.43;;;1.50;;
47153;SDS011;32907;41.412;2.164;2023-04-03T16:22:07;4.60;;;1.60;;
47153;SDS011;32907;41.412;2.164;2023-04-03T16:24:35;3.85;;;1.25;;
47153;SDS011;32907;41.412;2.164;2023-04-03T16:27:03;6.05;;;2.47;;
47153;SDS011;32907;41.412;2.164;2023-04-03T16:29:32;9.73;;;2.60;;
47153;SDS011;32907;41.412;2.164;2023-04-03T16:32:01;6.72;;;2.20;;
47153;SDS011;32907;41.412;2.164;2023-04-03T16:34:30;5.00;;;1.88;;
47153;SDS011;32907;41.412;2.164;2023-04-03T16:36:59;4.38;;;1.67;;
47153;SDS011;32907;41.412;2.164;2023-04-03T16:39:28;3.50;;;1.98;;
47153;SDS011;32907;41.412;2.164;2023-04-03T16:41:55;6.85;;;1.77;;
47153;SDS011;32907;41.412;2.164;2023-04-03T16:44:23;4.78;;;1.70;;
47153;SDS011;32907;41.412;2.164;2023-04-03T16:46:52;4.03;;;1.50;;
47153;SDS011;32907;41.412;2.164;2023-04-03T16:49:20;5.05;;;1.55;;
47153;SDS011;32907;41.412;2.164;2023-04-03T16:51:48;3.80;;;1.25;;
47153;SDS011;32907;41.412;2.164;2023-04-03T16:54:18;3.90;;;1.30;;
47153;SDS011;32907;41.412;2.164;2023-04-03T16:56:45;4.47;;;1.20;;
47153;SDS011;32907;41.412;2.164;2023-04-03T16:59:13;3.95;;;1.42;;
47153;SDS011;32907;41.412;2.164;2023-04-03T17:01:42;4.32;;;1.40;;
47153;SDS011;32907;41.412;2.164;2023-04-03T17:04:10;3.00;;;1.40;;
47153;SDS011;32907;41.412;2.164;2023-04-03T17:06:38;4.43;;;1.55;;
47153;SDS011;32907;41.412;2.164;2023-04-03T17:09:07;4.53;;;1.70;;
47153;SDS011;32907;41.412;2.164;2023-04-03T17:11:36;3.70;;;1.50;;
47153;SDS011;32907;41.412;2.164;2023-04-03T17:14:05;3.40;;;1.65;;